createdAt,value
2022-08-17T00:04:02.097Z,8.20
2022-08-17T00:08:10.020Z,7.10
2022-08-17T00:12:43.787Z,8.30
2022-08-17T00:16:56.156Z,8.30
2022-08-17T00:21:10.579Z,8.10
2022-08-17T00:25:21.230Z,8.60
2022-08-17T00:29:29.206Z,7.70
2022-08-17T00:33:37.790Z,8.70
2022-08-17T00:37:45.318Z,7.90
2022-08-17T00:41:53.492Z,8.00
2022-08-17T00:46:04.021Z,8.80
2022-08-17T00:50:16.130Z,8.20
2022-08-17T00:54:27.152Z,8.60
2022-08-17T00:58:36.790Z,9.00
2022-08-17T01:02:47.605Z,9.00
2022-08-17T01:06:56.500Z,9.10
2022-08-17T01:11:05.816Z,8.80
2022-08-17T01:15:14.200Z,9.20
2022-08-17T01:19:25.434Z,9.40
2022-08-17T01:23:33.526Z,9.40
2022-08-17T01:27:41.979Z,9.20
2022-08-17T01:31:54.358Z,9.10
2022-08-17T01:36:03.824Z,9.90
2022-08-17T01:40:17.593Z,9.30
2022-08-17T01:44:26.891Z,9.10
2022-08-17T01:48:36.637Z,9.50
2022-08-17T01:52:44.918Z,9.90
2022-08-17T01:56:53.512Z,9.80
2022-08-17T02:01:01.761Z,9.90
2022-08-17T02:05:11.265Z,9.80
2022-08-17T02:09:23.362Z,10.70
2022-08-17T02:13:33.918Z,10.10
2022-08-17T02:17:41.904Z,10.90
2022-08-17T02:21:52.232Z,10.30
2022-08-17T02:26:01.410Z,10.70
2022-08-17T02:31:01.382Z,9.70
2022-08-17T02:35:03.604Z,10.10
2022-08-17T02:39:13.106Z,9.50
2022-08-17T02:43:21.194Z,9.40
2022-08-17T02:47:29.382Z,10.00
2022-08-17T02:51:36.886Z,9.50
2022-08-17T02:55:45.528Z,9.90
2022-08-17T02:59:53.220Z,9.70
2022-08-17T03:04:00.986Z,9.50
2022-08-17T03:08:13.234Z,10.20
2022-08-17T03:12:21.239Z,9.90
2022-08-17T03:16:31.616Z,9.40
2022-08-17T03:20:39.553Z,10.30
2022-08-17T03:24:47.383Z,9.40
2022-08-17T03:28:55.899Z,9.80
2022-08-17T03:33:06.869Z,9.50
2022-08-17T03:37:14.662Z,9.40
2022-08-17T03:41:22.602Z,10.20
2022-08-17T03:45:48.808Z,9.70
2022-08-17T03:50:18.234Z,9.30
2022-08-17T03:54:43.554Z,9.40
2022-08-17T03:58:51.788Z,9.80
2022-08-17T04:03:00.483Z,10.00
2022-08-17T04:07:09.270Z,9.40
2022-08-17T04:11:16.675Z,9.20
2022-08-17T04:15:24.993Z,10.50
2022-08-17T04:19:32.897Z,9.90
2022-08-17T04:23:40.787Z,10.20
2022-08-17T04:27:49.354Z,10.60
2022-08-17T04:31:58.498Z,10.00
2022-08-17T04:36:08.976Z,10.00
2022-08-17T04:40:37.851Z,10.60
2022-08-17T04:44:46.269Z,11.00
2022-08-17T04:48:56.832Z,10.70
2022-08-17T04:53:05.479Z,10.00
2022-08-17T04:57:12.969Z,9.90
2022-08-17T05:01:23.938Z,10.00
2022-08-17T05:05:33.695Z,10.10
2022-08-17T05:09:41.246Z,9.90
2022-08-17T05:13:50.434Z,10.10
2022-08-17T05:17:58.592Z,9.80
2022-08-17T05:22:09.190Z,9.30
2022-08-17T05:26:20.477Z,9.20
2022-08-17T05:30:35.196Z,9.30
2022-08-17T05:34:43.027Z,8.90
2022-08-17T05:38:50.947Z,8.60
2022-08-17T05:43:10.083Z,9.10
2022-08-17T05:47:18.088Z,9.50
2022-08-17T05:51:43.560Z,8.00
2022-08-17T05:55:55.323Z,8.50
2022-08-17T06:00:10.031Z,8.00
2022-08-17T06:04:23.414Z,8.50
2022-08-17T06:08:35.979Z,8.50
2022-08-17T06:12:55.650Z,8.20
2022-08-17T06:17:06.476Z,7.60
2022-08-17T06:21:19.026Z,7.60
2022-08-17T06:25:35.714Z,7.10
2022-08-17T06:29:46.625Z,7.50
2022-08-17T06:33:54.530Z,7.50
2022-08-17T06:38:36.929Z,7.40
2022-08-17T06:43:06.651Z,6.40
2022-08-17T06:47:28.578Z,7.30
2022-08-17T06:51:40.799Z,6.50
2022-08-17T06:55:51.908Z,6.70
2022-08-17T07:00:01.400Z,6.30
2022-08-17T07:04:12.562Z,6.50
2022-08-17T07:08:29.677Z,6.90
2022-08-17T07:12:42.758Z,6.40
2022-08-17T07:16:52.970Z,7.00
2022-08-17T07:21:04.491Z,6.40
2022-08-17T07:25:18.659Z,6.60
2022-08-17T07:29:28.953Z,6.30
2022-08-17T07:33:39.411Z,6.10
2022-08-17T07:37:54.559Z,6.40
2022-08-17T07:42:07.798Z,6.10
2022-08-17T07:46:39.100Z,6.20
2022-08-17T07:50:49.597Z,6.10
2022-08-17T07:54:59.414Z,6.00
2022-08-17T07:59:23.214Z,6.10
2022-08-17T08:03:34.466Z,6.10
2022-08-17T08:07:51.342Z,6.10
2022-08-17T08:12:00.245Z,6.90
2022-08-17T08:16:25.599Z,5.90
2022-08-17T08:20:51.943Z,5.70
2022-08-17T08:25:09.622Z,6.40
2022-08-17T08:29:28.487Z,6.10
2022-08-17T08:33:46.097Z,5.90
2022-08-17T08:38:01.487Z,6.10
2022-08-17T08:42:14.843Z,5.90
2022-08-17T08:46:29.691Z,5.90
2022-08-17T08:50:46.141Z,5.40
2022-08-17T08:54:58.041Z,5.30
2022-08-17T08:59:14.535Z,5.60
2022-08-17T09:03:51.850Z,6.10
2022-08-17T09:08:15.243Z,5.80
2022-08-17T09:12:29.972Z,5.60
2022-08-17T09:16:42.571Z,5.80
2022-08-17T09:20:53.916Z,6.10
2022-08-17T09:25:07.106Z,6.40
2022-08-17T09:29:18.521Z,6.20
2022-08-17T09:33:28.500Z,5.70
2022-08-17T09:37:41.686Z,5.50
2022-08-17T09:41:53.771Z,4.90
2022-08-17T09:46:04.490Z,4.30
2022-08-17T09:50:17.030Z,5.10
2022-08-17T09:54:44.500Z,4.80
2022-08-17T09:59:08.950Z,5.20
2022-08-17T10:03:34.966Z,5.10
2022-08-17T10:07:46.944Z,5.20
2022-08-17T10:12:17.342Z,5.90
2022-08-17T10:16:35.779Z,5.70
2022-08-17T10:20:51.375Z,5.20
2022-08-17T10:25:23.739Z,5.50
2022-08-17T10:29:47.494Z,4.90
2022-08-17T10:34:07.113Z,5.10
2022-08-17T10:38:41.636Z,5.40
2022-08-17T10:42:59.334Z,5.40
2022-08-17T10:47:11.559Z,5.20
2022-08-17T10:51:39.405Z,4.60
2022-08-17T10:56:24.448Z,4.80
2022-08-17T11:01:13.011Z,5.50
2022-08-17T11:05:38.953Z,5.10
2022-08-17T11:10:19.021Z,6.10
2022-08-17T11:14:41.445Z,5.40
2022-08-17T11:19:15.829Z,5.20
2022-08-17T11:23:32.620Z,5.30
2022-08-17T11:27:40.663Z,5.00
2022-08-17T11:32:02.593Z,5.00
2022-08-17T11:36:18.368Z,5.20
2022-08-17T11:40:41.252Z,5.10
2022-08-17T11:44:54.904Z,5.30
2022-08-17T11:49:26.748Z,5.40
2022-08-17T11:58:45.110Z,5.00
2022-08-17T12:03:23.719Z,5.40
2022-08-17T12:07:33.415Z,5.30
2022-08-17T12:12:10.950Z,5.20
2022-08-17T12:16:19.368Z,5.30
2022-08-17T12:20:30.172Z,5.30
2022-08-17T12:24:47.372Z,4.90
2022-08-17T12:28:58.522Z,5.10
2022-08-17T12:33:25.000Z,5.40
2022-08-17T12:37:36.495Z,5.30
2022-08-17T12:41:47.144Z,5.50
2022-08-17T12:46:01.214Z,5.20
2022-08-17T12:50:29.638Z,5.30
2022-08-17T12:54:43.198Z,5.40
2022-08-17T12:58:53.800Z,5.10
2022-08-17T13:03:06.266Z,5.80
2022-08-17T13:07:14.771Z,5.60
2022-08-17T13:11:25.506Z,5.30
2022-08-17T13:15:37.154Z,5.50
2022-08-17T13:19:51.273Z,5.20
2022-08-17T13:24:02.176Z,4.70
2022-08-17T13:28:35.446Z,5.60
2022-08-17T13:32:47.426Z,5.50
2022-08-17T13:37:35.335Z,5.50
2022-08-17T13:41:43.385Z,5.00
2022-08-17T13:45:53.302Z,4.80
2022-08-17T13:50:01.166Z,5.30
2022-08-17T13:54:21.151Z,5.50
2022-08-17T13:58:30.562Z,5.00
2022-08-17T14:02:38.988Z,4.30
2022-08-17T14:06:53.990Z,4.90
2022-08-17T14:11:02.407Z,5.00
2022-08-17T14:15:12.282Z,4.00
2022-08-17T14:19:22.053Z,4.20
2022-08-17T14:23:33.151Z,4.60
2022-08-17T14:27:51.970Z,4.80
2022-08-17T14:32:06.707Z,4.70
2022-08-17T14:36:15.968Z,5.80
2022-08-17T14:40:25.801Z,5.00
2022-08-17T14:44:33.830Z,5.30
2022-08-17T14:48:41.813Z,4.90
2022-08-17T14:52:49.977Z,5.10
2022-08-17T14:57:22.247Z,4.90
2022-08-17T15:01:26.420Z,5.20
2022-08-17T15:05:37.116Z,4.80
2022-08-17T15:09:46.154Z,5.50
2022-08-17T15:13:57.218Z,5.70
2022-08-17T15:18:05.153Z,5.50
2022-08-17T15:22:25.238Z,4.90
2022-08-17T15:26:33.368Z,4.90
2022-08-17T15:30:43.653Z,5.50
2022-08-17T15:34:51.539Z,5.00
2022-08-17T15:39:00.189Z,5.60
2022-08-17T15:43:11.545Z,5.10
2022-08-17T15:47:20.602Z,5.80
2022-08-17T15:51:31.014Z,5.70
2022-08-17T15:55:39.749Z,5.50
2022-08-17T15:59:47.407Z,5.00
2022-08-17T16:04:06.563Z,5.10
2022-08-17T16:08:20.717Z,5.40
2022-08-17T16:12:29.376Z,5.30
2022-08-17T16:16:37.088Z,5.30
2022-08-17T16:20:45.184Z,5.40
2022-08-17T16:24:57.377Z,5.40
2022-08-17T16:29:07.680Z,5.10
2022-08-17T16:33:17.201Z,5.70
2022-08-17T16:37:25.454Z,5.80
2022-08-17T16:41:46.061Z,5.50
2022-08-17T16:45:55.142Z,5.10
2022-08-17T16:50:04.855Z,5.30
2022-08-17T16:54:17.575Z,5.50
2022-08-17T16:58:25.571Z,5.20
2022-08-17T17:02:35.076Z,5.50
2022-08-17T17:06:48.407Z,5.90
2022-08-17T17:10:58.275Z,5.20
2022-08-17T17:15:10.536Z,5.90
2022-08-17T17:19:34.289Z,5.40
2022-08-17T17:23:53.984Z,5.90
2022-08-17T17:28:07.232Z,5.50
2022-08-17T17:32:22.289Z,5.80
2022-08-17T17:36:34.426Z,6.00
2022-08-17T17:40:44.370Z,6.00
2022-08-17T17:44:55.059Z,6.20
2022-08-17T17:49:04.095Z,5.70
2022-08-17T17:53:17.076Z,6.10
2022-08-17T17:57:39.291Z,6.10
2022-08-17T18:01:55.140Z,5.80
2022-08-17T18:06:21.701Z,5.50
2022-08-17T18:10:35.287Z,5.60
2022-08-17T18:14:58.301Z,5.60
2022-08-17T18:19:06.880Z,6.60
2022-08-17T18:23:15.721Z,6.00
2022-08-17T18:27:27.766Z,6.80
2022-08-17T18:31:35.498Z,6.30
2022-08-17T18:35:59.335Z,5.90
2022-08-17T18:40:34.627Z,5.50
2022-08-17T18:44:49.597Z,6.20
2022-08-17T18:49:01.354Z,6.00
2022-08-17T18:53:26.624Z,5.90
2022-08-17T18:57:39.780Z,6.10
2022-08-17T19:02:15.984Z,6.00
2022-08-17T19:06:32.198Z,6.40
2022-08-17T19:10:46.238Z,6.50
2022-08-17T19:14:57.044Z,6.10
2022-08-17T19:19:09.519Z,6.90
2022-08-17T19:23:20.077Z,6.70
2022-08-17T19:27:41.961Z,6.40
2022-08-17T19:31:56.346Z,6.90
2022-08-17T19:36:10.331Z,6.50
2022-08-17T19:40:51.090Z,7.00
2022-08-17T19:44:59.418Z,6.80
2022-08-17T19:49:11.626Z,6.60
2022-08-17T19:53:36.861Z,6.80
2022-08-17T19:58:03.927Z,6.80
2022-08-17T20:02:32.127Z,8.60
2022-08-17T20:06:43.039Z,8.20
2022-08-17T20:10:55.376Z,8.00
2022-08-17T20:15:09.536Z,7.90
2022-08-17T20:19:24.739Z,8.50
2022-08-17T20:23:46.358Z,8.00
2022-08-17T20:28:05.568Z,7.60
2022-08-17T20:32:27.479Z,8.00
2022-08-17T20:36:37.059Z,7.40
2022-08-17T20:41:15.397Z,7.30
2022-08-17T20:45:52.900Z,8.20
2022-08-17T20:50:03.495Z,7.90
2022-08-17T20:54:44.539Z,8.70
2022-08-17T20:58:52.478Z,8.10
2022-08-17T21:03:51.070Z,8.20
2022-08-17T21:08:02.224Z,8.30
2022-08-17T21:12:11.597Z,8.50
2022-08-17T21:16:34.930Z,8.60
2022-08-17T21:20:50.199Z,8.60
2022-08-17T21:25:03.501Z,8.30
2022-08-17T21:29:31.827Z,8.60
2022-08-17T21:33:42.078Z,8.20
2022-08-17T21:37:50.650Z,8.50
2022-08-17T21:42:00.245Z,9.10
2022-08-17T21:46:11.850Z,9.20
2022-08-17T21:50:22.528Z,8.60
2022-08-17T21:54:37.004Z,8.50
2022-08-17T21:58:48.694Z,7.90
2022-08-17T22:03:01.763Z,8.60
2022-08-17T22:07:14.870Z,8.30
2022-08-17T22:11:22.660Z,8.20
2022-08-17T22:15:30.190Z,8.20
2022-08-17T22:19:38.337Z,7.70
2022-08-17T22:24:05.715Z,8.40
2022-08-17T22:28:14.989Z,7.90
2022-08-17T22:32:45.095Z,8.20
2022-08-17T22:36:53.820Z,8.20
2022-08-17T22:41:37.795Z,7.90
2022-08-17T22:45:54.631Z,8.00
2022-08-17T22:50:04.420Z,7.90
2022-08-17T22:54:37.055Z,8.50
2022-08-17T22:59:09.311Z,7.90
2022-08-17T23:03:20.121Z,8.20
2022-08-17T23:07:28.218Z,9.20
2022-08-17T23:11:49.109Z,8.90
2022-08-17T23:15:58.165Z,8.90
2022-08-17T23:20:08.691Z,8.70
2022-08-17T23:24:19.350Z,9.50
2022-08-17T23:28:28.734Z,9.50
2022-08-17T23:32:53.327Z,9.10
2022-08-17T23:37:04.533Z,9.10
2022-08-17T23:41:15.510Z,8.60
2022-08-17T23:45:24.162Z,8.30
2022-08-17T23:49:31.858Z,8.30
2022-08-17T23:53:42.429Z,8.60
2022-08-17T23:57:50.863Z,9.30
